sensor_id;sensor_type;location;lat;lon;timestamp;temperature;humidity
14517;DHT22;7344;50.864;4.362;2023-09-19T00:00:47;15.70;99.90
14517;DHT22;7344;50.864;4.362;2023-09-19T00:03:14;15.60;99.90
14517;DHT22;7344;50.864;4.362;2023-09-19T00:05:40;15.60;99.90
14517;DHT22;7344;50.864;4.362;2023-09-19T00:08:08;15.60;99.90
14517;DHT22;7344;50.864;4.362;2023-09-19T00:10:34;15.60;99.90
14517;DHT22;7344;50.864;4.362;2023-09-19T00:13:05;15.60;99.90
14517;DHT22;7344;50.864;4.362;2023-09-19T00:15:37;15.60;99.90
14517;DHT22;7344;50.864;4.362;2023-09-19T00:18:04;15.60;99.90
14517;DHT22;7344;50.864;4.362;2023-09-19T00:20:32;15.60;99.90
14517;DHT22;7344;50.864;4.362;2023-09-19T00:22:57;15.60;99.90
14517;DHT22;7344;50.864;4.362;2023-09-19T00:25:28;15.60;99.90
14517;DHT22;7344;50.864;4.362;2023-09-19T00:27:54;15.60;99.90
14517;DHT22;7344;50.864;4.362;2023-09-19T00:30:20;15.60;99.90
14517;DHT22;7344;50.864;4.362;2023-09-19T00:32:47;15.60;99.90
14517;DHT22;7344;50.864;4.362;2023-09-19T00:35:14;15.50;99.90
14517;DHT22;7344;50.864;4.362;2023-09-19T00:37:41;15.50;99.90
14517;DHT22;7344;50.864;4.362;2023-09-19T00:40:08;15.50;99.90
14517;DHT22;7344;50.864;4.362;2023-09-19T00:42:44;15.50;99.90
14517;DHT22;7344;50.864;4.362;2023-09-19T00:45:11;15.50;99.90
14517;DHT22;7344;50.864;4.362;2023-09-19T00:47:45;15.50;99.90
14517;DHT22;7344;50.864;4.362;2023-09-19T00:50:12;15.60;99.90
14517;DHT22;7344;50.864;4.362;2023-09-19T00:52:41;15.50;99.90
14517;DHT22;7344;50.864;4.362;2023-09-19T00:55:11;15.50;99.90
14517;DHT22;7344;50.864;4.362;2023-09-19T00:57:40;15.50;99.90
14517;DHT22;7344;50.864;4.362;2023-09-19T01:00:07;15.50;99.90
14517;DHT22;7344;50.864;4.362;2023-09-19T01:02:34;15.50;99.90
14517;DHT22;7344;50.864;4.362;2023-09-19T01:05:01;15.50;99.90
14517;DHT22;7344;50.864;4.362;2023-09-19T01:07:27;15.50;99.90
14517;DHT22;7344;50.864;4.362;2023-09-19T01:09:58;15.40;99.90
14517;DHT22;7344;50.864;4.362;2023-09-19T01:12:48;15.40;99.90
14517;DHT22;7344;50.864;4.362;2023-09-19T01:26:26;15.40;99.90
14517;DHT22;7344;50.864;4.362;2023-09-19T01:29:23;15.40;99.90
14517;DHT22;7344;50.864;4.362;2023-09-19T01:31:59;15.30;99.90
14517;DHT22;7344;50.864;4.362;2023-09-19T01:34:27;15.30;99.90
14517;DHT22;7344;50.864;4.362;2023-09-19T01:36:52;15.30;99.90
14517;DHT22;7344;50.864;4.362;2023-09-19T01:39:18;15.30;99.90
14517;DHT22;7344;50.864;4.362;2023-09-19T01:44:57;15.30;99.90
14517;DHT22;7344;50.864;4.362;2023-09-19T01:52:29;15.20;99.90
14517;DHT22;7344;50.864;4.362;2023-09-19T01:55:05;15.30;99.90
14517;DHT22;7344;50.864;4.362;2023-09-19T02:00:22;15.20;99.90
14517;DHT22;7344;50.864;4.362;2023-09-19T02:02:49;15.20;99.90
14517;DHT22;7344;50.864;4.362;2023-09-19T02:05:23;15.20;99.90
14517;DHT22;7344;50.864;4.362;2023-09-19T02:07:50;15.20;99.90
14517;DHT22;7344;50.864;4.362;2023-09-19T02:10:15;15.20;99.90
14517;DHT22;7344;50.864;4.362;2023-09-19T02:12:42;15.20;99.90
14517;DHT22;7344;50.864;4.362;2023-09-19T02:15:08;15.20;99.90
14517;DHT22;7344;50.864;4.362;2023-09-19T02:17:34;15.20;99.90
14517;DHT22;7344;50.864;4.362;2023-09-19T02:20:00;15.30;99.70
14517;DHT22;7344;50.864;4.362;2023-09-19T02:22:26;15.30;98.60
14517;DHT22;7344;50.864;4.362;2023-09-19T02:24:53;15.30;95.70
14517;DHT22;7344;50.864;4.362;2023-09-19T02:27:19;15.40;94.70
14517;DHT22;7344;50.864;4.362;2023-09-19T02:29:45;15.50;91.90
14517;DHT22;7344;50.864;4.362;2023-09-19T02:32:11;15.40;86.70
14517;DHT22;7344;50.864;4.362;2023-09-19T02:34:36;15.40;82.80
14517;DHT22;7344;50.864;4.362;2023-09-19T02:37:05;15.40;80.40
14517;DHT22;7344;50.864;4.362;2023-09-19T02:39:33;15.40;79.30
14517;DHT22;7344;50.864;4.362;2023-09-19T02:42:00;15.40;75.50
14517;DHT22;7344;50.864;4.362;2023-09-19T02:44:25;15.50;76.90
14517;DHT22;7344;50.864;4.362;2023-09-19T02:46:52;15.40;76.60
14517;DHT22;7344;50.864;4.362;2023-09-19T02:49:17;15.40;75.40
14517;DHT22;7344;50.864;4.362;2023-09-19T02:51:44;15.40;79.60
14517;DHT22;7344;50.864;4.362;2023-09-19T02:54:10;15.40;77.10
14517;DHT22;7344;50.864;4.362;2023-09-19T02:56:36;15.40;79.30
14517;DHT22;7344;50.864;4.362;2023-09-19T02:59:02;15.50;83.60
14517;DHT22;7344;50.864;4.362;2023-09-19T03:01:28;15.50;87.00
14517;DHT22;7344;50.864;4.362;2023-09-19T03:03:54;15.50;79.00
14517;DHT22;7344;50.864;4.362;2023-09-19T03:06:20;15.50;82.60
14517;DHT22;7344;50.864;4.362;2023-09-19T03:08:47;15.50;76.60
14517;DHT22;7344;50.864;4.362;2023-09-19T03:11:14;15.50;80.40
14517;DHT22;7344;50.864;4.362;2023-09-19T03:13:40;15.40;80.10
14517;DHT22;7344;50.864;4.362;2023-09-19T03:16:08;15.40;87.50
14517;DHT22;7344;50.864;4.362;2023-09-19T03:18:34;15.40;87.00
14517;DHT22;7344;50.864;4.362;2023-09-19T03:21:00;15.40;88.40
14517;DHT22;7344;50.864;4.362;2023-09-19T03:23:27;15.40;91.70
14517;DHT22;7344;50.864;4.362;2023-09-19T03:25:56;15.50;93.40
14517;DHT22;7344;50.864;4.362;2023-09-19T03:28:24;15.40;98.50
14517;DHT22;7344;50.864;4.362;2023-09-19T03:31:04;15.30;99.90
14517;DHT22;7344;50.864;4.362;2023-09-19T03:33:30;15.20;99.90
14517;DHT22;7344;50.864;4.362;2023-09-19T03:35:59;15.00;99.90
14517;DHT22;7344;50.864;4.362;2023-09-19T03:38:26;15.00;99.90
14517;DHT22;7344;50.864;4.362;2023-09-19T03:40:52;14.90;99.90
14517;DHT22;7344;50.864;4.362;2023-09-19T03:43:18;14.90;99.90
14517;DHT22;7344;50.864;4.362;2023-09-19T03:45:44;14.90;99.90
14517;DHT22;7344;50.864;4.362;2023-09-19T03:48:12;14.90;99.90
14517;DHT22;7344;50.864;4.362;2023-09-19T03:50:38;14.90;99.90
14517;DHT22;7344;50.864;4.362;2023-09-19T03:53:04;14.90;99.90
14517;DHT22;7344;50.864;4.362;2023-09-19T03:55:32;14.80;99.90
14517;DHT22;7344;50.864;4.362;2023-09-19T03:57:58;14.80;99.90
14517;DHT22;7344;50.864;4.362;2023-09-19T04:00:24;14.70;99.90
14517;DHT22;7344;50.864;4.362;2023-09-19T04:02:52;14.70;99.90
14517;DHT22;7344;50.864;4.362;2023-09-19T04:05:18;14.70;99.90
14517;DHT22;7344;50.864;4.362;2023-09-19T04:07:44;14.70;99.90
14517;DHT22;7344;50.864;4.362;2023-09-19T04:10:10;14.80;99.90
14517;DHT22;7344;50.864;4.362;2023-09-19T04:12:40;14.70;99.90
14517;DHT22;7344;50.864;4.362;2023-09-19T04:15:06;14.70;99.90
14517;DHT22;7344;50.864;4.362;2023-09-19T04:17:32;14.70;99.90
14517;DHT22;7344;50.864;4.362;2023-09-19T04:19:59;14.80;99.90
14517;DHT22;7344;50.864;4.362;2023-09-19T04:22:24;14.80;99.90
14517;DHT22;7344;50.864;4.362;2023-09-19T04:24:50;14.70;99.90
14517;DHT22;7344;50.864;4.362;2023-09-19T04:27:16;14.80;99.90
14517;DHT22;7344;50.864;4.362;2023-09-19T04:29:41;14.80;99.90
14517;DHT22;7344;50.864;4.362;2023-09-19T04:32:07;14.80;99.90
14517;DHT22;7344;50.864;4.362;2023-09-19T04:34:33;14.80;99.90
14517;DHT22;7344;50.864;4.362;2023-09-19T04:37:00;14.80;99.90
14517;DHT22;7344;50.864;4.362;2023-09-19T04:39:26;14.80;99.90
14517;DHT22;7344;50.864;4.362;2023-09-19T04:41:52;14.80;99.90
14517;DHT22;7344;50.864;4.362;2023-09-19T04:44:18;14.70;99.90
14517;DHT22;7344;50.864;4.362;2023-09-19T04:46:44;14.70;99.90
14517;DHT22;7344;50.864;4.362;2023-09-19T04:49:11;14.70;99.90
14517;DHT22;7344;50.864;4.362;2023-09-19T04:51:38;14.70;99.90
14517;DHT22;7344;50.864;4.362;2023-09-19T04:54:03;14.70;99.90
14517;DHT22;7344;50.864;4.362;2023-09-19T04:56:29;14.70;99.90
14517;DHT22;7344;50.864;4.362;2023-09-19T04:58:55;14.60;99.90
14517;DHT22;7344;50.864;4.362;2023-09-19T05:01:21;14.70;99.90
14517;DHT22;7344;50.864;4.362;2023-09-19T05:03:48;14.60;99.90
14517;DHT22;7344;50.864;4.362;2023-09-19T05:06:20;14.70;99.90
14517;DHT22;7344;50.864;4.362;2023-09-19T05:08:47;14.60;99.90
14517;DHT22;7344;50.864;4.362;2023-09-19T05:11:19;14.60;99.90
14517;DHT22;7344;50.864;4.362;2023-09-19T05:13:47;14.60;99.90
14517;DHT22;7344;50.864;4.362;2023-09-19T05:16:12;14.60;99.90
14517;DHT22;7344;50.864;4.362;2023-09-19T05:18:38;14.60;99.90
14517;DHT22;7344;50.864;4.362;2023-09-19T05:21:03;14.60;99.90
14517;DHT22;7344;50.864;4.362;2023-09-19T05:23:29;14.60;99.90
14517;DHT22;7344;50.864;4.362;2023-09-19T05:25:55;14.60;99.90
14517;DHT22;7344;50.864;4.362;2023-09-19T05:28:22;14.60;99.90
14517;DHT22;7344;50.864;4.362;2023-09-19T05:30:48;14.60;99.90
14517;DHT22;7344;50.864;4.362;2023-09-19T05:33:14;14.60;99.90
14517;DHT22;7344;50.864;4.362;2023-09-19T05:35:40;14.60;99.90
14517;DHT22;7344;50.864;4.362;2023-09-19T05:38:07;14.60;99.90
14517;DHT22;7344;50.864;4.362;2023-09-19T05:40:35;14.70;99.90
14517;DHT22;7344;50.864;4.362;2023-09-19T05:43:01;14.70;99.90
14517;DHT22;7344;50.864;4.362;2023-09-19T05:45:27;14.80;99.90
14517;DHT22;7344;50.864;4.362;2023-09-19T05:47:53;14.80;99.90
14517;DHT22;7344;50.864;4.362;2023-09-19T05:50:29;14.80;99.90
14517;DHT22;7344;50.864;4.362;2023-09-19T05:52:55;14.90;99.90
14517;DHT22;7344;50.864;4.362;2023-09-19T05:55:23;14.90;99.90
14517;DHT22;7344;50.864;4.362;2023-09-19T05:57:53;14.90;99.90
14517;DHT22;7344;50.864;4.362;2023-09-19T06:00:20;15.00;99.90
14517;DHT22;7344;50.864;4.362;2023-09-19T06:02:55;15.00;99.90
14517;DHT22;7344;50.864;4.362;2023-09-19T06:05:22;15.10;99.90
14517;DHT22;7344;50.864;4.362;2023-09-19T06:07:48;15.10;99.90
14517;DHT22;7344;50.864;4.362;2023-09-19T06:10:14;15.10;99.90
14517;DHT22;7344;50.864;4.362;2023-09-19T06:12:41;15.20;99.90
14517;DHT22;7344;50.864;4.362;2023-09-19T06:15:10;15.30;99.90
14517;DHT22;7344;50.864;4.362;2023-09-19T06:17:49;15.30;99.90
14517;DHT22;7344;50.864;4.362;2023-09-19T06:20:16;15.50;99.90
14517;DHT22;7344;50.864;4.362;2023-09-19T06:22:43;15.60;99.90
14517;DHT22;7344;50.864;4.362;2023-09-19T06:25:13;15.60;99.90
14517;DHT22;7344;50.864;4.362;2023-09-19T06:27:51;15.70;99.90
14517;DHT22;7344;50.864;4.362;2023-09-19T06:30:23;15.80;99.90
14517;DHT22;7344;50.864;4.362;2023-09-19T06:32:58;16.00;99.90
14517;DHT22;7344;50.864;4.362;2023-09-19T06:35:25;16.00;99.90
14517;DHT22;7344;50.864;4.362;2023-09-19T06:37:51;16.10;97.60
14517;DHT22;7344;50.864;4.362;2023-09-19T06:40:18;16.20;93.90
14517;DHT22;7344;50.864;4.362;2023-09-19T06:42:46;16.20;93.80
14517;DHT22;7344;50.864;4.362;2023-09-19T06:45:13;16.40;92.50
14517;DHT22;7344;50.864;4.362;2023-09-19T06:47:43;16.60;85.60
14517;DHT22;7344;50.864;4.362;2023-09-19T06:50:09;16.60;86.00
14517;DHT22;7344;50.864;4.362;2023-09-19T06:52:40;16.60;80.30
14517;DHT22;7344;50.864;4.362;2023-09-19T06:55:06;16.70;75.30
14517;DHT22;7344;50.864;4.362;2023-09-19T06:57:32;16.60;73.80
14517;DHT22;7344;50.864;4.362;2023-09-19T06:59:57;16.70;70.90
14517;DHT22;7344;50.864;4.362;2023-09-19T07:02:23;16.80;66.80
14517;DHT22;7344;50.864;4.362;2023-09-19T07:04:49;16.90;66.10
14517;DHT22;7344;50.864;4.362;2023-09-19T07:07:15;17.10;58.90
14517;DHT22;7344;50.864;4.362;2023-09-19T07:09:41;17.30;55.50
14517;DHT22;7344;50.864;4.362;2023-09-19T07:12:07;17.70;38.30
14517;DHT22;7344;50.864;4.362;2023-09-19T07:14:33;17.90;30.30
14517;DHT22;7344;50.864;4.362;2023-09-19T07:16:59;17.90;35.40
14517;DHT22;7344;50.864;4.362;2023-09-19T07:19:29;18.60;18.80
14517;DHT22;7344;50.864;4.362;2023-09-19T07:21:56;18.90;3.80
14517;DHT22;7344;50.864;4.362;2023-09-19T07:24:25;19.20;1.00
14517;DHT22;7344;50.864;4.362;2023-09-19T07:26:52;19.90;1.00
14517;DHT22;7344;50.864;4.362;2023-09-19T07:29:18;20.30;1.00
14517;DHT22;7344;50.864;4.362;2023-09-19T07:31:43;20.60;1.00
14517;DHT22;7344;50.864;4.362;2023-09-19T07:34:09;20.90;1.00
14517;DHT22;7344;50.864;4.362;2023-09-19T07:36:35;20.60;1.00
14517;DHT22;7344;50.864;4.362;2023-09-19T07:39:03;20.80;1.00
14517;DHT22;7344;50.864;4.362;2023-09-19T07:41:32;21.60;1.00
14517;DHT22;7344;50.864;4.362;2023-09-19T07:43:58;21.30;1.00
14517;DHT22;7344;50.864;4.362;2023-09-19T07:46:23;21.00;1.00
14517;DHT22;7344;50.864;4.362;2023-09-19T07:48:51;20.90;1.00
14517;DHT22;7344;50.864;4.362;2023-09-19T07:51:17;21.00;1.00
14517;DHT22;7344;50.864;4.362;2023-09-19T07:53:43;21.70;1.00
14517;DHT22;7344;50.864;4.362;2023-09-19T07:56:09;21.80;1.00
14517;DHT22;7344;50.864;4.362;2023-09-19T07:58:35;21.60;1.00
14517;DHT22;7344;50.864;4.362;2023-09-19T08:01:09;21.70;1.00
14517;DHT22;7344;50.864;4.362;2023-09-19T08:03:36;22.00;1.00
14517;DHT22;7344;50.864;4.362;2023-09-19T08:06:06;22.20;1.00
14517;DHT22;7344;50.864;4.362;2023-09-19T08:08:33;22.70;1.00
14517;DHT22;7344;50.864;4.362;2023-09-19T08:11:03;22.50;1.00
14517;DHT22;7344;50.864;4.362;2023-09-19T08:13:37;22.40;1.00
14517;DHT22;7344;50.864;4.362;2023-09-19T08:16:04;22.90;1.00
14517;DHT22;7344;50.864;4.362;2023-09-19T08:18:30;22.70;1.00
14517;DHT22;7344;50.864;4.362;2023-09-19T08:20:56;22.90;1.00
14517;DHT22;7344;50.864;4.362;2023-09-19T08:23:24;22.90;1.00
14517;DHT22;7344;50.864;4.362;2023-09-19T08:25:50;22.80;1.00
14517;DHT22;7344;50.864;4.362;2023-09-19T08:28:15;22.90;1.00
14517;DHT22;7344;50.864;4.362;2023-09-19T08:30:45;23.30;1.00
14517;DHT22;7344;50.864;4.362;2023-09-19T08:33:11;23.40;1.00
14517;DHT22;7344;50.864;4.362;2023-09-19T08:35:37;23.20;1.00
14517;DHT22;7344;50.864;4.362;2023-09-19T08:38:05;23.80;99.90
14517;DHT22;7344;50.864;4.362;2023-09-19T08:40:32;24.30;1.00
14517;DHT22;7344;50.864;4.362;2023-09-19T08:42:59;24.70;99.90
14517;DHT22;7344;50.864;4.362;2023-09-19T08:45:26;25.00;99.90
14517;DHT22;7344;50.864;4.362;2023-09-19T08:48:22;24.70;99.90
14517;DHT22;7344;50.864;4.362;2023-09-19T08:50:49;24.20;99.90
14517;DHT22;7344;50.864;4.362;2023-09-19T08:53:30;24.00;1.00
14517;DHT22;7344;50.864;4.362;2023-09-19T08:55:59;23.60;99.90
14517;DHT22;7344;50.864;4.362;2023-09-19T08:58:34;23.60;99.90
14517;DHT22;7344;50.864;4.362;2023-09-19T09:01:06;23.30;99.90
14517;DHT22;7344;50.864;4.362;2023-09-19T09:03:33;23.30;99.90
14517;DHT22;7344;50.864;4.362;2023-09-19T09:06:00;23.40;99.90
14517;DHT22;7344;50.864;4.362;2023-09-19T09:08:27;23.60;1.00
14517;DHT22;7344;50.864;4.362;2023-09-19T09:10:54;23.20;99.90
14517;DHT22;7344;50.864;4.362;2023-09-19T09:13:20;23.20;99.90
14517;DHT22;7344;50.864;4.362;2023-09-19T09:15:47;23.60;1.00
14517;DHT22;7344;50.864;4.362;2023-09-19T09:18:13;23.40;55.90
14517;DHT22;7344;50.864;4.362;2023-09-19T09:20:39;23.10;99.90
14517;DHT22;7344;50.864;4.362;2023-09-19T09:23:05;22.90;99.90
14517;DHT22;7344;50.864;4.362;2023-09-19T09:25:51;22.80;1.00
14517;DHT22;7344;50.864;4.362;2023-09-19T09:28:27;22.20;1.00
14517;DHT22;7344;50.864;4.362;2023-09-19T09:30:59;22.20;1.00
14517;DHT22;7344;50.864;4.362;2023-09-19T09:33:26;22.10;1.00
14517;DHT22;7344;50.864;4.362;2023-09-19T09:35:57;22.10;1.00
14517;DHT22;7344;50.864;4.362;2023-09-19T09:38:29;22.00;1.00
14517;DHT22;7344;50.864;4.362;2023-09-19T09:40:59;22.10;1.00
14517;DHT22;7344;50.864;4.362;2023-09-19T09:43:33;22.20;1.00
14517;DHT22;7344;50.864;4.362;2023-09-19T09:46:14;22.10;1.00
14517;DHT22;7344;50.864;4.362;2023-09-19T09:48:46;21.70;1.00
14517;DHT22;7344;50.864;4.362;2023-09-19T09:51:32;21.50;1.00
14517;DHT22;7344;50.864;4.362;2023-09-19T09:54:15;20.70;1.00
14517;DHT22;7344;50.864;4.362;2023-09-19T09:56:55;20.50;1.00
14517;DHT22;7344;50.864;4.362;2023-09-19T10:02:14;20.60;1.00
14517;DHT22;7344;50.864;4.362;2023-09-19T10:04:39;20.80;1.00
14517;DHT22;7344;50.864;4.362;2023-09-19T10:07:30;21.20;1.00
14517;DHT22;7344;50.864;4.362;2023-09-19T10:10:03;21.10;1.00
14517;DHT22;7344;50.864;4.362;2023-09-19T10:12:46;20.80;1.00
14517;DHT22;7344;50.864;4.362;2023-09-19T10:15:17;21.10;1.00
14517;DHT22;7344;50.864;4.362;2023-09-19T10:17:46;21.50;1.00
14517;DHT22;7344;50.864;4.362;2023-09-19T10:20:13;22.10;1.00
14517;DHT22;7344;50.864;4.362;2023-09-19T10:22:59;22.60;1.00
14517;DHT22;7344;50.864;4.362;2023-09-19T10:25:26;22.90;99.90
14517;DHT22;7344;50.864;4.362;2023-09-19T10:28:02;22.60;1.00
14517;DHT22;7344;50.864;4.362;2023-09-19T10:30:32;22.80;99.90
14517;DHT22;7344;50.864;4.362;2023-09-19T10:33:03;22.80;99.90
14517;DHT22;7344;50.864;4.362;2023-09-19T10:35:29;23.30;99.90
14517;DHT22;7344;50.864;4.362;2023-09-19T10:38:00;23.60;99.90
14517;DHT22;7344;50.864;4.362;2023-09-19T10:40:27;23.80;99.90
14517;DHT22;7344;50.864;4.362;2023-09-19T10:43:03;23.80;1.00
14517;DHT22;7344;50.864;4.362;2023-09-19T10:45:34;23.70;51.60
14517;DHT22;7344;50.864;4.362;2023-09-19T10:48:01;23.70;1.00
14517;DHT22;7344;50.864;4.362;2023-09-19T10:50:41;24.30;99.90
14517;DHT22;7344;50.864;4.362;2023-09-19T10:53:11;24.10;99.90
14517;DHT22;7344;50.864;4.362;2023-09-19T10:55:38;24.30;1.00
14517;DHT22;7344;50.864;4.362;2023-09-19T10:58:05;24.00;56.60
14517;DHT22;7344;50.864;4.362;2023-09-19T11:00:53;24.20;99.90
14517;DHT22;7344;50.864;4.362;2023-09-19T11:03:20;24.50;99.90
14517;DHT22;7344;50.864;4.362;2023-09-19T11:06:11;24.70;99.90
14517;DHT22;7344;50.864;4.362;2023-09-19T11:11:42;24.30;40.10
14517;DHT22;7344;50.864;4.362;2023-09-19T11:30:37;24.10;1.00
14517;DHT22;7344;50.864;4.362;2023-09-19T11:33:26;23.70;1.00
14517;DHT22;7344;50.864;4.362;2023-09-19T11:43:48;22.40;1.00
14517;DHT22;7344;50.864;4.362;2023-09-19T11:46:16;22.10;1.00
14517;DHT22;7344;50.864;4.362;2023-09-19T11:48:48;22.20;1.00
14517;DHT22;7344;50.864;4.362;2023-09-19T11:51:17;21.70;1.00
14517;DHT22;7344;50.864;4.362;2023-09-19T11:53:51;21.60;1.00
14517;DHT22;7344;50.864;4.362;2023-09-19T11:56:22;21.70;1.00
14517;DHT22;7344;50.864;4.362;2023-09-19T11:58:51;22.10;1.00
14517;DHT22;7344;50.864;4.362;2023-09-19T12:01:33;22.40;1.00
14517;DHT22;7344;50.864;4.362;2023-09-19T12:04:02;22.40;1.00
14517;DHT22;7344;50.864;4.362;2023-09-19T12:06:30;22.40;1.00
14517;DHT22;7344;50.864;4.362;2023-09-19T12:08:57;22.20;1.00
14517;DHT22;7344;50.864;4.362;2023-09-19T12:11:31;22.00;1.00
14517;DHT22;7344;50.864;4.362;2023-09-19T12:14:01;21.90;1.00
14517;DHT22;7344;50.864;4.362;2023-09-19T12:16:28;21.70;1.00
14517;DHT22;7344;50.864;4.362;2023-09-19T12:18:57;21.60;1.00
14517;DHT22;7344;50.864;4.362;2023-09-19T12:21:27;21.70;1.00
14517;DHT22;7344;50.864;4.362;2023-09-19T12:26:30;21.80;1.00
14517;DHT22;7344;50.864;4.362;2023-09-19T12:29:03;21.60;1.00
14517;DHT22;7344;50.864;4.362;2023-09-19T12:31:30;21.40;1.00
14517;DHT22;7344;50.864;4.362;2023-09-19T12:34:01;21.40;1.00
14517;DHT22;7344;50.864;4.362;2023-09-19T12:36:27;21.50;1.00
14517;DHT22;7344;50.864;4.362;2023-09-19T12:38:56;21.60;1.00
14517;DHT22;7344;50.864;4.362;2023-09-19T12:41:25;21.60;1.00
14517;DHT22;7344;50.864;4.362;2023-09-19T12:43:52;21.60;1.00
14517;DHT22;7344;50.864;4.362;2023-09-19T12:46:22;21.70;1.00
14517;DHT22;7344;50.864;4.362;2023-09-19T12:49:14;21.70;1.00
14517;DHT22;7344;50.864;4.362;2023-09-19T12:51:42;21.80;1.00
14517;DHT22;7344;50.864;4.362;2023-09-19T12:54:09;21.50;1.00
14517;DHT22;7344;50.864;4.362;2023-09-19T12:56:45;21.70;1.00
14517;DHT22;7344;50.864;4.362;2023-09-19T12:59:13;21.70;1.00
14517;DHT22;7344;50.864;4.362;2023-09-19T13:01:40;21.70;1.00
14517;DHT22;7344;50.864;4.362;2023-09-19T13:06:46;21.50;1.00
14517;DHT22;7344;50.864;4.362;2023-09-19T13:09:14;21.60;1.00
14517;DHT22;7344;50.864;4.362;2023-09-19T13:11:40;21.80;1.00
14517;DHT22;7344;50.864;4.362;2023-09-19T13:14:19;21.90;1.00
14517;DHT22;7344;50.864;4.362;2023-09-19T13:17:05;21.90;1.00
14517;DHT22;7344;50.864;4.362;2023-09-19T13:19:51;21.60;1.00
14517;DHT22;7344;50.864;4.362;2023-09-19T13:22:44;21.70;1.00
14517;DHT22;7344;50.864;4.362;2023-09-19T13:25:18;21.80;1.00
14517;DHT22;7344;50.864;4.362;2023-09-19T13:27:48;21.80;1.00
14517;DHT22;7344;50.864;4.362;2023-09-19T13:30:19;21.80;1.00
14517;DHT22;7344;50.864;4.362;2023-09-19T13:32:45;22.00;1.00
14517;DHT22;7344;50.864;4.362;2023-09-19T13:35:13;22.00;1.00
14517;DHT22;7344;50.864;4.362;2023-09-19T13:37:39;21.90;1.00
14517;DHT22;7344;50.864;4.362;2023-09-19T13:40:14;21.80;1.00
14517;DHT22;7344;50.864;4.362;2023-09-19T13:42:41;21.80;1.00
14517;DHT22;7344;50.864;4.362;2023-09-19T13:45:07;21.90;1.00
14517;DHT22;7344;50.864;4.362;2023-09-19T13:47:37;21.80;1.00
14517;DHT22;7344;50.864;4.362;2023-09-19T13:50:04;21.70;1.00
14517;DHT22;7344;50.864;4.362;2023-09-19T13:52:31;21.80;1.00
14517;DHT22;7344;50.864;4.362;2023-09-19T13:54:57;21.70;1.00
14517;DHT22;7344;50.864;4.362;2023-09-19T13:57:24;21.70;1.00
14517;DHT22;7344;50.864;4.362;2023-09-19T13:59:52;21.80;1.00
14517;DHT22;7344;50.864;4.362;2023-09-19T14:02:20;21.60;1.00
14517;DHT22;7344;50.864;4.362;2023-09-19T14:04:48;21.40;1.00
14517;DHT22;7344;50.864;4.362;2023-09-19T14:07:13;21.30;1.00
14517;DHT22;7344;50.864;4.362;2023-09-19T14:09:40;21.10;1.00
14517;DHT22;7344;50.864;4.362;2023-09-19T14:12:06;21.00;1.00
14517;DHT22;7344;50.864;4.362;2023-09-19T14:14:32;21.10;1.00
14517;DHT22;7344;50.864;4.362;2023-09-19T14:16:58;21.10;1.00
14517;DHT22;7344;50.864;4.362;2023-09-19T14:19:26;21.00;1.00
14517;DHT22;7344;50.864;4.362;2023-09-19T14:21:52;21.10;1.00
14517;DHT22;7344;50.864;4.362;2023-09-19T14:24:21;21.30;1.00
14517;DHT22;7344;50.864;4.362;2023-09-19T14:26:47;21.40;1.00
14517;DHT22;7344;50.864;4.362;2023-09-19T14:29:13;21.40;1.00
14517;DHT22;7344;50.864;4.362;2023-09-19T14:31:39;21.50;1.00
14517;DHT22;7344;50.864;4.362;2023-09-19T14:34:06;21.60;1.00
14517;DHT22;7344;50.864;4.362;2023-09-19T14:36:31;21.40;1.00
14517;DHT22;7344;50.864;4.362;2023-09-19T14:38:58;21.50;1.00
14517;DHT22;7344;50.864;4.362;2023-09-19T14:41:24;21.60;1.00
14517;DHT22;7344;50.864;4.362;2023-09-19T14:43:51;21.70;1.00
14517;DHT22;7344;50.864;4.362;2023-09-19T14:46:17;21.60;1.00
14517;DHT22;7344;50.864;4.362;2023-09-19T14:48:44;21.40;1.00
14517;DHT22;7344;50.864;4.362;2023-09-19T14:51:13;21.30;1.00
14517;DHT22;7344;50.864;4.362;2023-09-19T14:53:40;21.20;1.00
14517;DHT22;7344;50.864;4.362;2023-09-19T14:56:08;21.30;1.00
14517;DHT22;7344;50.864;4.362;2023-09-19T14:58:34;21.20;1.00
14517;DHT22;7344;50.864;4.362;2023-09-19T15:01:07;21.10;1.00
14517;DHT22;7344;50.864;4.362;2023-09-19T15:03:34;21.00;1.00
14517;DHT22;7344;50.864;4.362;2023-09-19T15:06:04;21.00;1.00
14517;DHT22;7344;50.864;4.362;2023-09-19T15:08:31;20.90;1.00
14517;DHT22;7344;50.864;4.362;2023-09-19T15:10:57;20.80;1.00
14517;DHT22;7344;50.864;4.362;2023-09-19T15:13:24;20.90;1.00
14517;DHT22;7344;50.864;4.362;2023-09-19T15:16:01;21.00;1.00
14517;DHT22;7344;50.864;4.362;2023-09-19T15:18:28;21.10;1.00
14517;DHT22;7344;50.864;4.362;2023-09-19T15:20:56;21.20;1.00
14517;DHT22;7344;50.864;4.362;2023-09-19T15:23:22;21.20;1.00
14517;DHT22;7344;50.864;4.362;2023-09-19T15:25:48;21.00;1.00
14517;DHT22;7344;50.864;4.362;2023-09-19T15:28:14;21.00;1.00
14517;DHT22;7344;50.864;4.362;2023-09-19T15:30:40;20.90;1.00
14517;DHT22;7344;50.864;4.362;2023-09-19T15:33:07;20.80;1.00
14517;DHT22;7344;50.864;4.362;2023-09-19T15:35:33;20.60;1.00
14517;DHT22;7344;50.864;4.362;2023-09-19T15:37:58;20.60;1.00
14517;DHT22;7344;50.864;4.362;2023-09-19T15:40:26;20.40;1.00
14517;DHT22;7344;50.864;4.362;2023-09-19T15:42:54;20.20;1.00
14517;DHT22;7344;50.864;4.362;2023-09-19T15:45:19;20.20;1.00
14517;DHT22;7344;50.864;4.362;2023-09-19T15:47:45;20.20;1.00
14517;DHT22;7344;50.864;4.362;2023-09-19T15:50:11;20.30;1.00
14517;DHT22;7344;50.864;4.362;2023-09-19T15:52:39;20.40;1.00
14517;DHT22;7344;50.864;4.362;2023-09-19T15:55:06;20.40;1.00
14517;DHT22;7344;50.864;4.362;2023-09-19T15:57:33;20.30;1.00
14517;DHT22;7344;50.864;4.362;2023-09-19T15:59:59;20.30;1.00
14517;DHT22;7344;50.864;4.362;2023-09-19T16:02:25;20.30;1.00
14517;DHT22;7344;50.864;4.362;2023-09-19T16:04:54;20.20;1.00
14517;DHT22;7344;50.864;4.362;2023-09-19T16:07:19;20.20;1.00
14517;DHT22;7344;50.864;4.362;2023-09-19T16:09:45;20.10;1.00
14517;DHT22;7344;50.864;4.362;2023-09-19T16:12:10;20.10;1.00
14517;DHT22;7344;50.864;4.362;2023-09-19T16:14:36;20.20;1.00
14517;DHT22;7344;50.864;4.362;2023-09-19T16:17:03;20.10;1.00
14517;DHT22;7344;50.864;4.362;2023-09-19T16:19:29;20.10;1.00
14517;DHT22;7344;50.864;4.362;2023-09-19T16:21:54;20.00;1.00
14517;DHT22;7344;50.864;4.362;2023-09-19T16:24:21;20.00;1.00
14517;DHT22;7344;50.864;4.362;2023-09-19T16:26:47;20.00;1.00
14517;DHT22;7344;50.864;4.362;2023-09-19T16:29:14;20.00;1.00
14517;DHT22;7344;50.864;4.362;2023-09-19T16:31:40;20.00;1.00
14517;DHT22;7344;50.864;4.362;2023-09-19T16:34:06;19.90;1.00
14517;DHT22;7344;50.864;4.362;2023-09-19T16:36:32;19.90;1.00
14517;DHT22;7344;50.864;4.362;2023-09-19T16:38:59;19.80;1.00
14517;DHT22;7344;50.864;4.362;2023-09-19T16:41:25;19.80;1.00
14517;DHT22;7344;50.864;4.362;2023-09-19T16:43:51;19.80;1.00
14517;DHT22;7344;50.864;4.362;2023-09-19T16:46:17;19.70;1.00
14517;DHT22;7344;50.864;4.362;2023-09-19T16:48:47;19.70;1.00
14517;DHT22;7344;50.864;4.362;2023-09-19T16:51:14;19.70;1.00
14517;DHT22;7344;50.864;4.362;2023-09-19T16:53:42;19.80;1.00
14517;DHT22;7344;50.864;4.362;2023-09-19T16:56:08;19.70;1.00
14517;DHT22;7344;50.864;4.362;2023-09-19T16:58:36;19.70;1.00
14517;DHT22;7344;50.864;4.362;2023-09-19T17:01:01;19.60;1.00